LFRH 181530Z AUTO 26015KT CAVOK 20/15 Q1018 BECMG OVC010

ElémentsDécodage
LFRH Station météo située sur l'aérodrome de LORIENT Lann-Bihoué
181530Z émis le 18 du mois à 15h30 UTC
AUTO Bulletin édité par un automate
26015KT vent du 260°, 15 noeuds
CAVOK Ceiling And Visibility OK
- Visibilité de 10 Km ou plus
- Pas de nuage au-dessous de 1500m ou au-dessous de l'altitude minimale du secteur la plus élevée (si>1500m) et absence de CB
- pas de temps présent significatif
20/15 température 20°C, point de rosée 15°C
 soit une humidité relative de 73%
Q1018 la pression au niveau de la mer (QNH) est de 1018 hPa
BECMG fluctuation du temps prévue
OVC010 couverture nuageuse totale (8/8) à 1000 pieds